San Antonio, TX (78246)

6:15 PM CST on February 05, 2016 (GMT -0600)
APRSWXNET | | Change Station
CLOSE
Current Station
Personal Weather Station
Location: San Antonio, TX
Elevation: 820 ft
Nearby Weather Stations

Elev 820 ft 29.51 °N, 98.47 °W | Updated 37 minutes ago

Overcast
Overcast
61 °F
Feels Like 61 °F
N
0
Wind Variable Wind from SSE
Gusts 0.0 mph

Today
High -- | Low -- °F
--% Chance of Precip.
Yesterday
High -- | Low -- °F
Precip. -- in
Pressure 30.24 in
Visibility 10.0 miles
Clouds Overcast 7000 ft
Dew Point 36 °F
Humidity 39%
Rainfall in
Snow Depth Not available.
7:21 AM 6:14 PM
Waning Crescent, 8% visible
METAR KSAT 052351Z 15009KT 10SM OVC070 14/01 A3026 RMK AO2 SLP239 T01440006 10167 20128 55005
Pressure 30.24 in
Visibility 10.0 miles
Clouds Overcast 7000 ft
Dew Point 36 °F
Humidity 39%
Rainfall in
Snow Depth Not available.
7:21 AM 6:14 PM
Waning Crescent, 8% visible
METAR KSAT 052351Z 15009KT 10SM OVC070 14/01 A3026 RMK AO2 SLP239 T01440006 10167 20128 55005

10-Day Weather Forecast

Almanac

Astronomy

Feb. 05, 2016 Rise Set
Actual Time
Civil Twilight
Nautical Twilight
Astronomical Twilight
Moon
Length of Visible Light
Length of Day
Tomorrow will be .
, % of the Moon is Illuminated

Today's Extremes

State Highs State Lows

Community

WunderPhotos

Upload Photos

1,890,893 photos uploaded!

WunderBlog® & News

Nearby

Air Quality

  Air Quality AQ Index Pollutant
Not available.

Snow Depth

Station Depth Elevation

Earthquake Activity

City Distance Mag. Time & Date
Minimum magnitude displayed is 2.5.

Coastal Water Temperatures

Place Temperature

Stations

Nearby Weather Stations

Station Location Temp. Windchill Dew Point Humidity Wind Precip. Elev Updated Type
                   

Watches & Warnings

There are currently no watches in effect.